sensor_id;sensor_type;location;lat;lon;timestamp;P1;durP1;ratioP1;P2;durP2;ratioP2
73515;SDS011;61763;51.416;5.442;2024-02-28T00:00:56;45.70;;;13.13;;
73515;SDS011;61763;51.416;5.442;2024-02-28T00:03:21;50.30;;;16.05;;
73515;SDS011;61763;51.416;5.442;2024-02-28T00:05:49;43.80;;;13.50;;
73515;SDS011;61763;51.416;5.442;2024-02-28T00:08:14;43.00;;;14.55;;
73515;SDS011;61763;51.416;5.442;2024-02-28T00:10:42;53.15;;;12.95;;
73515;SDS011;61763;51.416;5.442;2024-02-28T00:13:07;55.25;;;15.80;;
73515;SDS011;61763;51.416;5.442;2024-02-28T00:15:33;49.90;;;14.10;;
73515;SDS011;61763;51.416;5.442;2024-02-28T00:17:58;51.35;;;16.70;;
73515;SDS011;61763;51.416;5.442;2024-02-28T00:20:24;48.70;;;14.88;;
73515;SDS011;61763;51.416;5.442;2024-02-28T00:22:52;49.85;;;15.20;;
73515;SDS011;61763;51.416;5.442;2024-02-28T00:25:17;52.30;;;16.85;;
73515;SDS011;61763;51.416;5.442;2024-02-28T00:27:43;49.45;;;15.10;;
73515;SDS011;61763;51.416;5.442;2024-02-28T00:30:08;53.55;;;17.23;;
73515;SDS011;61763;51.416;5.442;2024-02-28T00:32:37;51.40;;;16.23;;
73515;SDS011;61763;51.416;5.442;2024-02-28T00:35:02;56.58;;;17.15;;
73515;SDS011;61763;51.416;5.442;2024-02-28T00:37:28;45.92;;;13.82;;
73515;SDS011;61763;51.416;5.442;2024-02-28T00:39:56;44.30;;;12.50;;
73515;SDS011;61763;51.416;5.442;2024-02-28T00:42:21;51.70;;;15.80;;
73515;SDS011;61763;51.416;5.442;2024-02-28T00:44:47;50.90;;;16.20;;
73515;SDS011;61763;51.416;5.442;2024-02-28T00:47:12;47.90;;;14.43;;
73515;SDS011;61763;51.416;5.442;2024-02-28T00:49:38;56.65;;;16.95;;
73515;SDS011;61763;51.416;5.442;2024-02-28T00:52:03;51.83;;;15.40;;
73515;SDS011;61763;51.416;5.442;2024-02-28T00:54:29;67.40;;;18.17;;
73515;SDS011;61763;51.416;5.442;2024-02-28T00:56:54;57.70;;;17.40;;
73515;SDS011;61763;51.416;5.442;2024-02-28T00:59:20;51.10;;;14.25;;
73515;SDS011;61763;51.416;5.442;2024-02-28T01:01:47;54.60;;;17.80;;
73515;SDS011;61763;51.416;5.442;2024-02-28T01:04:13;61.03;;;18.73;;
73515;SDS011;61763;51.416;5.442;2024-02-28T01:06:39;70.88;;;18.23;;
73515;SDS011;61763;51.416;5.442;2024-02-28T01:09:04;56.25;;;18.85;;
73515;SDS011;61763;51.416;5.442;2024-02-28T01:11:31;57.80;;;19.40;;
73515;SDS011;61763;51.416;5.442;2024-02-28T01:13:56;64.57;;;18.80;;
73515;SDS011;61763;51.416;5.442;2024-02-28T01:16:23;51.85;;;16.00;;
73515;SDS011;61763;51.416;5.442;2024-02-28T01:18:50;51.15;;;15.70;;
73515;SDS011;61763;51.416;5.442;2024-02-28T01:21:16;55.10;;;19.33;;
73515;SDS011;61763;51.416;5.442;2024-02-28T01:23:41;50.97;;;16.67;;
73515;SDS011;61763;51.416;5.442;2024-02-28T01:26:06;58.90;;;17.23;;
73515;SDS011;61763;51.416;5.442;2024-02-28T01:28:32;46.83;;;15.95;;
73515;SDS011;61763;51.416;5.442;2024-02-28T01:30:59;58.58;;;18.42;;
73515;SDS011;61763;51.416;5.442;2024-02-28T01:33:25;57.35;;;19.02;;
73515;SDS011;61763;51.416;5.442;2024-02-28T01:35:50;50.35;;;16.58;;
73515;SDS011;61763;51.416;5.442;2024-02-28T01:38:16;55.35;;;18.25;;
73515;SDS011;61763;51.416;5.442;2024-02-28T01:40:47;56.03;;;16.50;;
73515;SDS011;61763;51.416;5.442;2024-02-28T01:43:13;45.13;;;14.27;;
73515;SDS011;61763;51.416;5.442;2024-02-28T01:45:38;52.38;;;16.25;;
73515;SDS011;61763;51.416;5.442;2024-02-28T01:48:05;51.75;;;14.05;;
73515;SDS011;61763;51.416;5.442;2024-02-28T01:50:35;42.65;;;13.90;;
73515;SDS011;61763;51.416;5.442;2024-02-28T01:53:02;44.17;;;15.98;;
73515;SDS011;61763;51.416;5.442;2024-02-28T01:55:28;45.83;;;16.35;;
73515;SDS011;61763;51.416;5.442;2024-02-28T01:57:55;59.90;;;16.80;;
73515;SDS011;61763;51.416;5.442;2024-02-28T02:00:21;55.80;;;16.40;;
73515;SDS011;61763;51.416;5.442;2024-02-28T02:02:47;54.28;;;17.92;;
73515;SDS011;61763;51.416;5.442;2024-02-28T02:05:13;54.55;;;15.38;;
73515;SDS011;61763;51.416;5.442;2024-02-28T02:07:41;44.15;;;15.43;;
73515;SDS011;61763;51.416;5.442;2024-02-28T02:10:07;58.05;;;17.65;;
73515;SDS011;61763;51.416;5.442;2024-02-28T02:12:35;42.60;;;13.63;;
73515;SDS011;61763;51.416;5.442;2024-02-28T02:15:01;53.95;;;16.70;;
73515;SDS011;61763;51.416;5.442;2024-02-28T02:17:26;44.92;;;14.27;;
73515;SDS011;61763;51.416;5.442;2024-02-28T02:19:52;44.53;;;16.40;;
73515;SDS011;61763;51.416;5.442;2024-02-28T02:22:18;44.00;;;12.30;;
73515;SDS011;61763;51.416;5.442;2024-02-28T02:24:45;51.05;;;15.02;;
73515;SDS011;61763;51.416;5.442;2024-02-28T02:27:10;43.67;;;14.27;;
73515;SDS011;61763;51.416;5.442;2024-02-28T02:29:35;49.40;;;15.38;;
73515;SDS011;61763;51.416;5.442;2024-02-28T02:32:01;49.95;;;16.25;;
73515;SDS011;61763;51.416;5.442;2024-02-28T02:34:26;46.70;;;13.57;;
73515;SDS011;61763;51.416;5.442;2024-02-28T02:36:53;48.70;;;13.98;;
73515;SDS011;61763;51.416;5.442;2024-02-28T02:39:18;46.05;;;14.23;;
73515;SDS011;61763;51.416;5.442;2024-02-28T02:41:43;42.42;;;14.95;;
73515;SDS011;61763;51.416;5.442;2024-02-28T02:44:09;44.65;;;15.38;;
73515;SDS011;61763;51.416;5.442;2024-02-28T02:46:34;49.15;;;15.45;;
73515;SDS011;61763;51.416;5.442;2024-02-28T02:48:59;44.13;;;14.05;;
73515;SDS011;61763;51.416;5.442;2024-02-28T02:51:25;56.92;;;15.57;;
73515;SDS011;61763;51.416;5.442;2024-02-28T02:53:50;42.40;;;14.65;;
73515;SDS011;61763;51.416;5.442;2024-02-28T02:56:16;43.50;;;14.63;;
73515;SDS011;61763;51.416;5.442;2024-02-28T02:58:41;46.90;;;14.70;;
73515;SDS011;61763;51.416;5.442;2024-02-28T03:01:07;53.22;;;14.27;;
73515;SDS011;61763;51.416;5.442;2024-02-28T03:03:33;44.17;;;13.98;;
73515;SDS011;61763;51.416;5.442;2024-02-28T03:06:02;51.67;;;15.57;;
73515;SDS011;61763;51.416;5.442;2024-02-28T03:08:32;53.42;;;14.60;;
73515;SDS011;61763;51.416;5.442;2024-02-28T03:10:58;52.78;;;18.60;;
73515;SDS011;61763;51.416;5.442;2024-02-28T03:13:23;54.58;;;19.00;;
73515;SDS011;61763;51.416;5.442;2024-02-28T03:15:50;50.53;;;15.50;;
73515;SDS011;61763;51.416;5.442;2024-02-28T03:18:16;43.00;;;15.68;;
73515;SDS011;61763;51.416;5.442;2024-02-28T03:20:42;52.70;;;15.95;;
73515;SDS011;61763;51.416;5.442;2024-02-28T03:23:07;57.55;;;16.95;;
73515;SDS011;61763;51.416;5.442;2024-02-28T03:25:32;53.15;;;18.30;;
73515;SDS011;61763;51.416;5.442;2024-02-28T03:27:59;52.45;;;16.73;;
73515;SDS011;61763;51.416;5.442;2024-02-28T03:30:24;51.30;;;17.98;;
73515;SDS011;61763;51.416;5.442;2024-02-28T03:32:50;52.67;;;17.45;;
73515;SDS011;61763;51.416;5.442;2024-02-28T03:35:15;41.45;;;16.85;;
73515;SDS011;61763;51.416;5.442;2024-02-28T03:37:41;44.13;;;16.30;;
73515;SDS011;61763;51.416;5.442;2024-02-28T03:40:06;51.00;;;15.32;;
73515;SDS011;61763;51.416;5.442;2024-02-28T03:42:32;52.92;;;17.80;;
73515;SDS011;61763;51.416;5.442;2024-02-28T03:44:57;55.25;;;15.65;;
73515;SDS011;61763;51.416;5.442;2024-02-28T03:47:24;53.20;;;15.30;;
73515;SDS011;61763;51.416;5.442;2024-02-28T03:49:50;55.53;;;15.38;;
73515;SDS011;61763;51.416;5.442;2024-02-28T03:52:16;48.45;;;14.18;;
73515;SDS011;61763;51.416;5.442;2024-02-28T03:54:44;42.20;;;14.02;;
73515;SDS011;61763;51.416;5.442;2024-02-28T03:57:10;48.03;;;16.95;;
73515;SDS011;61763;51.416;5.442;2024-02-28T03:59:35;50.92;;;17.48;;
73515;SDS011;61763;51.416;5.442;2024-02-28T04:02:00;49.03;;;16.35;;
73515;SDS011;61763;51.416;5.442;2024-02-28T04:04:26;63.83;;;18.30;;
73515;SDS011;61763;51.416;5.442;2024-02-28T04:06:51;63.72;;;18.27;;
73515;SDS011;61763;51.416;5.442;2024-02-28T04:09:17;56.25;;;15.73;;
73515;SDS011;61763;51.416;5.442;2024-02-28T04:11:42;59.08;;;15.63;;
73515;SDS011;61763;51.416;5.442;2024-02-28T04:14:08;55.47;;;15.23;;
73515;SDS011;61763;51.416;5.442;2024-02-28T04:16:33;57.42;;;16.60;;
73515;SDS011;61763;51.416;5.442;2024-02-28T04:18:59;53.63;;;17.58;;
73515;SDS011;61763;51.416;5.442;2024-02-28T04:21:25;54.35;;;17.42;;
73515;SDS011;61763;51.416;5.442;2024-02-28T04:23:51;57.55;;;15.88;;
73515;SDS011;61763;51.416;5.442;2024-02-28T04:26:16;57.92;;;16.35;;
73515;SDS011;61763;51.416;5.442;2024-02-28T04:28:42;62.22;;;18.50;;
73515;SDS011;61763;51.416;5.442;2024-02-28T04:31:07;56.03;;;17.15;;
73515;SDS011;61763;51.416;5.442;2024-02-28T04:33:34;61.80;;;16.85;;
73515;SDS011;61763;51.416;5.442;2024-02-28T04:36:00;71.90;;;16.88;;
73515;SDS011;61763;51.416;5.442;2024-02-28T04:38:26;60.63;;;18.85;;
73515;SDS011;61763;51.416;5.442;2024-02-28T04:40:51;55.58;;;17.23;;
73515;SDS011;61763;51.416;5.442;2024-02-28T04:43:17;65.63;;;19.27;;
73515;SDS011;61763;51.416;5.442;2024-02-28T04:45:42;70.57;;;18.58;;
73515;SDS011;61763;51.416;5.442;2024-02-28T04:48:08;69.15;;;18.52;;
73515;SDS011;61763;51.416;5.442;2024-02-28T04:50:33;69.00;;;20.83;;
73515;SDS011;61763;51.416;5.442;2024-02-28T04:53:00;73.07;;;19.88;;
73515;SDS011;61763;51.416;5.442;2024-02-28T04:55:26;61.55;;;18.35;;
73515;SDS011;61763;51.416;5.442;2024-02-28T04:57:51;60.42;;;19.58;;
73515;SDS011;61763;51.416;5.442;2024-02-28T05:00:17;61.42;;;17.05;;
73515;SDS011;61763;51.416;5.442;2024-02-28T05:02:42;65.18;;;18.65;;
73515;SDS011;61763;51.416;5.442;2024-02-28T05:05:08;58.13;;;17.73;;
73515;SDS011;61763;51.416;5.442;2024-02-28T05:07:33;52.10;;;17.15;;
73515;SDS011;61763;51.416;5.442;2024-02-28T05:09:58;69.80;;;20.80;;
73515;SDS011;61763;51.416;5.442;2024-02-28T05:12:24;66.32;;;19.30;;
73515;SDS011;61763;51.416;5.442;2024-02-28T05:14:49;61.80;;;19.38;;
73515;SDS011;61763;51.416;5.442;2024-02-28T05:17:15;57.38;;;19.65;;
73515;SDS011;61763;51.416;5.442;2024-02-28T05:19:42;59.72;;;19.08;;
73515;SDS011;61763;51.416;5.442;2024-02-28T05:22:08;63.70;;;17.67;;
73515;SDS011;61763;51.416;5.442;2024-02-28T05:24:36;56.90;;;17.15;;
73515;SDS011;61763;51.416;5.442;2024-02-28T05:27:01;56.25;;;17.15;;
73515;SDS011;61763;51.416;5.442;2024-02-28T05:29:27;53.30;;;16.73;;
73515;SDS011;61763;51.416;5.442;2024-02-28T05:31:52;50.15;;;15.45;;
73515;SDS011;61763;51.416;5.442;2024-02-28T05:34:18;50.05;;;16.83;;
73515;SDS011;61763;51.416;5.442;2024-02-28T05:36:43;53.00;;;16.63;;
73515;SDS011;61763;51.416;5.442;2024-02-28T05:39:09;56.22;;;18.35;;
73515;SDS011;61763;51.416;5.442;2024-02-28T05:41:35;61.55;;;18.40;;
73515;SDS011;61763;51.416;5.442;2024-02-28T05:44:03;56.08;;;17.58;;
73515;SDS011;61763;51.416;5.442;2024-02-28T05:46:28;49.80;;;15.88;;
73515;SDS011;61763;51.416;5.442;2024-02-28T05:48:54;68.05;;;16.88;;
73515;SDS011;61763;51.416;5.442;2024-02-28T05:51:19;58.08;;;15.48;;
73515;SDS011;61763;51.416;5.442;2024-02-28T05:53:45;66.43;;;20.13;;
73515;SDS011;61763;51.416;5.442;2024-02-28T05:56:10;64.28;;;19.75;;
73515;SDS011;61763;51.416;5.442;2024-02-28T05:58:39;53.83;;;15.75;;
73515;SDS011;61763;51.416;5.442;2024-02-28T06:01:09;61.65;;;19.40;;
73515;SDS011;61763;51.416;5.442;2024-02-28T06:03:35;58.03;;;17.15;;
73515;SDS011;61763;51.416;5.442;2024-02-28T06:06:01;64.00;;;18.48;;
73515;SDS011;61763;51.416;5.442;2024-02-28T06:08:29;65.60;;;18.45;;
73515;SDS011;61763;51.416;5.442;2024-02-28T06:10:56;71.15;;;19.63;;
73515;SDS011;61763;51.416;5.442;2024-02-28T06:13:21;58.33;;;18.92;;
73515;SDS011;61763;51.416;5.442;2024-02-28T06:15:47;61.50;;;19.45;;
73515;SDS011;61763;51.416;5.442;2024-02-28T06:18:13;64.90;;;20.88;;
73515;SDS011;61763;51.416;5.442;2024-02-28T06:20:40;50.58;;;16.75;;
73515;SDS011;61763;51.416;5.442;2024-02-28T06:23:05;60.10;;;19.45;;
73515;SDS011;61763;51.416;5.442;2024-02-28T06:25:31;70.28;;;18.48;;
73515;SDS011;61763;51.416;5.442;2024-02-28T06:27:59;52.10;;;20.48;;
73515;SDS011;61763;51.416;5.442;2024-02-28T06:30:25;51.88;;;17.77;;
73515;SDS011;61763;51.416;5.442;2024-02-28T06:32:50;62.40;;;18.30;;
73515;SDS011;61763;51.416;5.442;2024-02-28T06:35:15;55.72;;;19.15;;
73515;SDS011;61763;51.416;5.442;2024-02-28T06:37:42;57.65;;;16.63;;
73515;SDS011;61763;51.416;5.442;2024-02-28T06:40:13;57.25;;;17.70;;
73515;SDS011;61763;51.416;5.442;2024-02-28T06:42:39;58.88;;;17.85;;
73515;SDS011;61763;51.416;5.442;2024-02-28T06:45:04;61.78;;;19.48;;
73515;SDS011;61763;51.416;5.442;2024-02-28T06:47:30;59.53;;;15.90;;
73515;SDS011;61763;51.416;5.442;2024-02-28T06:49:57;59.53;;;17.70;;
73515;SDS011;61763;51.416;5.442;2024-02-28T06:52:22;54.15;;;16.55;;
73515;SDS011;61763;51.416;5.442;2024-02-28T06:54:48;52.15;;;17.15;;
73515;SDS011;61763;51.416;5.442;2024-02-28T06:57:13;50.70;;;17.38;;
73515;SDS011;61763;51.416;5.442;2024-02-28T06:59:38;49.42;;;16.17;;
73515;SDS011;61763;51.416;5.442;2024-02-28T07:02:04;49.38;;;18.85;;
73515;SDS011;61763;51.416;5.442;2024-02-28T07:04:30;60.67;;;19.50;;
73515;SDS011;61763;51.416;5.442;2024-02-28T07:06:55;52.50;;;17.23;;
73515;SDS011;61763;51.416;5.442;2024-02-28T07:09:20;57.45;;;19.70;;
73515;SDS011;61763;51.416;5.442;2024-02-28T07:11:46;63.63;;;19.58;;
73515;SDS011;61763;51.416;5.442;2024-02-28T07:14:11;68.97;;;19.67;;
73515;SDS011;61763;51.416;5.442;2024-02-28T07:16:37;65.25;;;19.30;;
73515;SDS011;61763;51.416;5.442;2024-02-28T07:19:02;43.75;;;13.10;;
73515;SDS011;61763;51.416;5.442;2024-02-28T07:21:27;55.95;;;18.35;;
73515;SDS011;61763;51.416;5.442;2024-02-28T07:23:53;62.10;;;19.52;;
73515;SDS011;61763;51.416;5.442;2024-02-28T07:26:19;64.25;;;20.48;;
73515;SDS011;61763;51.416;5.442;2024-02-28T07:28:45;59.40;;;19.67;;
73515;SDS011;61763;51.416;5.442;2024-02-28T07:31:15;55.45;;;19.00;;
73515;SDS011;61763;51.416;5.442;2024-02-28T07:33:41;54.65;;;19.40;;
73515;SDS011;61763;51.416;5.442;2024-02-28T07:36:06;53.58;;;18.17;;
73515;SDS011;61763;51.416;5.442;2024-02-28T07:38:32;53.75;;;18.55;;
73515;SDS011;61763;51.416;5.442;2024-02-28T07:40:57;43.00;;;16.15;;
73515;SDS011;61763;51.416;5.442;2024-02-28T07:43:23;51.78;;;20.00;;
73515;SDS011;61763;51.416;5.442;2024-02-28T07:45:48;58.53;;;20.23;;
73515;SDS011;61763;51.416;5.442;2024-02-28T07:48:14;42.00;;;14.88;;
73515;SDS011;61763;51.416;5.442;2024-02-28T07:50:39;51.50;;;19.05;;
73515;SDS011;61763;51.416;5.442;2024-02-28T07:53:06;49.53;;;14.15;;
73515;SDS011;61763;51.416;5.442;2024-02-28T07:55:32;48.83;;;17.15;;
73515;SDS011;61763;51.416;5.442;2024-02-28T07:57:58;45.13;;;17.52;;
73515;SDS011;61763;51.416;5.442;2024-02-28T08:00:24;42.38;;;17.27;;
73515;SDS011;61763;51.416;5.442;2024-02-28T08:02:50;48.33;;;17.20;;
73515;SDS011;61763;51.416;5.442;2024-02-28T08:05:15;49.88;;;15.38;;
73515;SDS011;61763;51.416;5.442;2024-02-28T08:07:41;43.05;;;16.75;;
73515;SDS011;61763;51.416;5.442;2024-02-28T08:10:07;48.15;;;17.98;;
73515;SDS011;61763;51.416;5.442;2024-02-28T08:12:35;51.22;;;17.92;;
73515;SDS011;61763;51.416;5.442;2024-02-28T08:15:00;32.13;;;13.48;;
73515;SDS011;61763;51.416;5.442;2024-02-28T08:17:26;47.72;;;16.55;;
73515;SDS011;61763;51.416;5.442;2024-02-28T08:19:52;48.05;;;16.70;;
73515;SDS011;61763;51.416;5.442;2024-02-28T08:22:17;38.13;;;14.18;;
73515;SDS011;61763;51.416;5.442;2024-02-28T08:24:42;39.70;;;16.48;;
73515;SDS011;61763;51.416;5.442;2024-02-28T08:27:08;40.78;;;14.98;;
73515;SDS011;61763;51.416;5.442;2024-02-28T08:29:33;39.88;;;14.75;;
73515;SDS011;61763;51.416;5.442;2024-02-28T08:32:00;34.05;;;15.32;;
73515;SDS011;61763;51.416;5.442;2024-02-28T08:34:26;35.28;;;16.73;;
73515;SDS011;61763;51.416;5.442;2024-02-28T08:36:51;38.35;;;14.85;;
73515;SDS011;61763;51.416;5.442;2024-02-28T08:39:17;34.08;;;14.80;;
73515;SDS011;61763;51.416;5.442;2024-02-28T08:41:42;36.70;;;13.95;;
73515;SDS011;61763;51.416;5.442;2024-02-28T08:44:08;31.75;;;14.10;;
73515;SDS011;61763;51.416;5.442;2024-02-28T08:46:33;37.90;;;13.63;;
73515;SDS011;61763;51.416;5.442;2024-02-28T08:48:58;34.20;;;14.55;;
73515;SDS011;61763;51.416;5.442;2024-02-28T08:51:24;28.55;;;12.27;;
73515;SDS011;61763;51.416;5.442;2024-02-28T08:53:49;33.60;;;14.55;;
73515;SDS011;61763;51.416;5.442;2024-02-28T08:56:17;28.35;;;11.77;;
73515;SDS011;61763;51.416;5.442;2024-02-28T08:58:42;31.50;;;14.52;;
73515;SDS011;61763;51.416;5.442;2024-02-28T09:01:12;31.33;;;12.25;;
73515;SDS011;61763;51.416;5.442;2024-02-28T09:03:39;26.85;;;11.88;;
73515;SDS011;61763;51.416;5.442;2024-02-28T09:06:04;28.42;;;12.35;;
73515;SDS011;61763;51.416;5.442;2024-02-28T09:08:29;26.77;;;13.10;;
73515;SDS011;61763;51.416;5.442;2024-02-28T09:10:55;24.73;;;11.55;;
73515;SDS011;61763;51.416;5.442;2024-02-28T09:13:20;22.80;;;9.90;;
73515;SDS011;61763;51.416;5.442;2024-02-28T09:15:46;27.90;;;10.07;;
73515;SDS011;61763;51.416;5.442;2024-02-28T09:18:11;27.15;;;12.00;;
73515;SDS011;61763;51.416;5.442;2024-02-28T09:20:36;26.00;;;12.05;;
73515;SDS011;61763;51.416;5.442;2024-02-28T09:23:02;27.45;;;12.25;;
73515;SDS011;61763;51.416;5.442;2024-02-28T09:25:27;26.02;;;10.95;;
73515;SDS011;61763;51.416;5.442;2024-02-28T09:27:53;24.38;;;10.30;;
73515;SDS011;61763;51.416;5.442;2024-02-28T09:30:18;25.90;;;11.27;;
73515;SDS011;61763;51.416;5.442;2024-02-28T09:32:43;24.60;;;12.32;;
73515;SDS011;61763;51.416;5.442;2024-02-28T09:35:09;22.23;;;10.40;;
73515;SDS011;61763;51.416;5.442;2024-02-28T09:37:36;22.63;;;9.07;;
73515;SDS011;61763;51.416;5.442;2024-02-28T09:40:02;26.00;;;11.18;;
73515;SDS011;61763;51.416;5.442;2024-02-28T09:42:28;20.45;;;9.75;;
73515;SDS011;61763;51.416;5.442;2024-02-28T09:44:53;24.55;;;12.20;;
73515;SDS011;61763;51.416;5.442;2024-02-28T09:47:19;24.88;;;10.73;;
73515;SDS011;61763;51.416;5.442;2024-02-28T09:49:45;22.58;;;9.40;;
73515;SDS011;61763;51.416;5.442;2024-02-28T09:52:15;27.00;;;11.23;;
73515;SDS011;61763;51.416;5.442;2024-02-28T09:54:41;21.33;;;9.00;;
73515;SDS011;61763;51.416;5.442;2024-02-28T09:57:09;20.00;;;10.13;;
73515;SDS011;61763;51.416;5.442;2024-02-28T09:59:36;20.60;;;9.50;;
73515;SDS011;61763;51.416;5.442;2024-02-28T10:02:04;19.35;;;8.80;;
73515;SDS011;61763;51.416;5.442;2024-02-28T10:04:31;29.52;;;10.63;;
73515;SDS011;61763;51.416;5.442;2024-02-28T10:06:59;25.42;;;9.15;;
73515;SDS011;61763;51.416;5.442;2024-02-28T10:09:37;26.52;;;10.30;;
73515;SDS011;61763;51.416;5.442;2024-02-28T10:12:03;26.85;;;11.55;;
73515;SDS011;61763;51.416;5.442;2024-02-28T10:14:28;22.00;;;9.55;;
73515;SDS011;61763;51.416;5.442;2024-02-28T10:16:54;27.40;;;11.48;;
73515;SDS011;61763;51.416;5.442;2024-02-28T10:19:20;20.27;;;9.85;;
73515;SDS011;61763;51.416;5.442;2024-02-28T10:21:46;20.35;;;9.65;;
73515;SDS011;61763;51.416;5.442;2024-02-28T10:24:12;26.15;;;10.85;;
73515;SDS011;61763;51.416;5.442;2024-02-28T10:26:44;24.15;;;10.13;;
73515;SDS011;61763;51.416;5.442;2024-02-28T10:29:10;22.40;;;10.48;;
73515;SDS011;61763;51.416;5.442;2024-02-28T10:31:37;22.30;;;9.75;;
73515;SDS011;61763;51.416;5.442;2024-02-28T10:34:02;24.15;;;9.05;;
73515;SDS011;61763;51.416;5.442;2024-02-28T10:36:29;24.40;;;11.38;;
73515;SDS011;61763;51.416;5.442;2024-02-28T10:38:57;23.27;;;8.90;;
73515;SDS011;61763;51.416;5.442;2024-02-28T10:41:23;23.27;;;10.35;;
73515;SDS011;61763;51.416;5.442;2024-02-28T10:43:51;23.17;;;10.82;;
73515;SDS011;61763;51.416;5.442;2024-02-28T10:46:18;30.60;;;10.98;;
73515;SDS011;61763;51.416;5.442;2024-02-28T10:48:45;22.48;;;10.60;;
73515;SDS011;61763;51.416;5.442;2024-02-28T10:51:13;22.52;;;10.95;;
73515;SDS011;61763;51.416;5.442;2024-02-28T10:53:41;23.27;;;10.25;;
73515;SDS011;61763;51.416;5.442;2024-02-28T10:56:09;25.38;;;11.07;;
73515;SDS011;61763;51.416;5.442;2024-02-28T10:58:36;22.50;;;9.48;;
73515;SDS011;61763;51.416;5.442;2024-02-28T11:01:06;17.10;;;7.32;;
73515;SDS011;61763;51.416;5.442;2024-02-28T11:03:33;23.88;;;9.82;;
73515;SDS011;61763;51.416;5.442;2024-02-28T11:05:59;20.30;;;8.48;;
73515;SDS011;61763;51.416;5.442;2024-02-28T11:08:24;20.77;;;10.13;;
73515;SDS011;61763;51.416;5.442;2024-02-28T11:10:56;22.40;;;9.20;;
73515;SDS011;61763;51.416;5.442;2024-02-28T11:13:23;16.27;;;7.40;;
73515;SDS011;61763;51.416;5.442;2024-02-28T11:15:49;18.77;;;9.32;;
73515;SDS011;61763;51.416;5.442;2024-02-28T11:18:15;15.32;;;8.98;;
73515;SDS011;61763;51.416;5.442;2024-02-28T11:20:41;15.02;;;8.15;;
73515;SDS011;61763;51.416;5.442;2024-02-28T11:23:07;19.42;;;8.85;;
73515;SDS011;61763;51.416;5.442;2024-02-28T11:25:34;16.27;;;6.82;;
73515;SDS011;61763;51.416;5.442;2024-02-28T11:27:59;17.20;;;7.72;;
73515;SDS011;61763;51.416;5.442;2024-02-28T11:30:25;19.95;;;7.97;;
73515;SDS011;61763;51.416;5.442;2024-02-28T11:32:54;18.02;;;9.25;;
73515;SDS011;61763;51.416;5.442;2024-02-28T11:35:19;16.95;;;6.65;;
73515;SDS011;61763;51.416;5.442;2024-02-28T11:37:46;18.67;;;8.25;;
73515;SDS011;61763;51.416;5.442;2024-02-28T11:40:12;20.67;;;9.38;;
73515;SDS011;61763;51.416;5.442;2024-02-28T11:42:38;20.05;;;7.25;;
73515;SDS011;61763;51.416;5.442;2024-02-28T11:45:04;14.38;;;6.95;;
73515;SDS011;61763;51.416;5.442;2024-02-28T11:47:31;16.58;;;7.97;;
73515;SDS011;61763;51.416;5.442;2024-02-28T11:49:58;20.52;;;6.00;;
73515;SDS011;61763;51.416;5.442;2024-02-28T11:52:25;18.15;;;6.97;;
73515;SDS011;61763;51.416;5.442;2024-02-28T11:54:50;14.25;;;7.03;;
73515;SDS011;61763;51.416;5.442;2024-02-28T11:57:18;15.32;;;7.53;;
73515;SDS011;61763;51.416;5.442;2024-02-28T11:59:44;15.82;;;7.10;;
73515;SDS011;61763;51.416;5.442;2024-02-28T12:02:13;15.68;;;4.40;;
73515;SDS011;61763;51.416;5.442;2024-02-28T12:04:42;19.00;;;7.18;;
73515;SDS011;61763;51.416;5.442;2024-02-28T12:07:08;19.15;;;7.93;;
73515;SDS011;61763;51.416;5.442;2024-02-28T12:09:34;15.10;;;6.45;;
73515;SDS011;61763;51.416;5.442;2024-02-28T12:12:00;13.60;;;6.45;;
73515;SDS011;61763;51.416;5.442;2024-02-28T12:14:26;19.60;;;7.15;;
73515;SDS011;61763;51.416;5.442;2024-02-28T12:16:52;19.38;;;7.80;;
73515;SDS011;61763;51.416;5.442;2024-02-28T12:19:18;19.58;;;8.27;;
73515;SDS011;61763;51.416;5.442;2024-02-28T12:21:45;14.90;;;6.78;;
73515;SDS011;61763;51.416;5.442;2024-02-28T12:24:11;16.48;;;6.93;;
73515;SDS011;61763;51.416;5.442;2024-02-28T12:26:38;15.18;;;6.00;;
73515;SDS011;61763;51.416;5.442;2024-02-28T12:29:03;16.50;;;5.43;;
73515;SDS011;61763;51.416;5.442;2024-02-28T12:31:29;19.17;;;7.82;;
73515;SDS011;61763;51.416;5.442;2024-02-28T12:33:54;20.13;;;6.93;;
73515;SDS011;61763;51.416;5.442;2024-02-28T12:36:20;16.23;;;7.30;;
73515;SDS011;61763;51.416;5.442;2024-02-28T12:38:46;16.67;;;6.53;;
73515;SDS011;61763;51.416;5.442;2024-02-28T12:41:11;14.50;;;7.15;;
73515;SDS011;61763;51.416;5.442;2024-02-28T12:43:38;18.52;;;7.78;;
73515;SDS011;61763;51.416;5.442;2024-02-28T12:46:04;16.52;;;7.68;;
73515;SDS011;61763;51.416;5.442;2024-02-28T12:48:29;17.70;;;8.10;;
73515;SDS011;61763;51.416;5.442;2024-02-28T12:50:56;18.13;;;6.30;;
73515;SDS011;61763;51.416;5.442;2024-02-28T12:53:21;14.75;;;7.43;;
73515;SDS011;61763;51.416;5.442;2024-02-28T12:55:47;16.40;;;7.63;;
73515;SDS011;61763;51.416;5.442;2024-02-28T12:58:12;16.52;;;7.10;;
73515;SDS011;61763;51.416;5.442;2024-02-28T13:00:37;15.82;;;7.15;;
73515;SDS011;61763;51.416;5.442;2024-02-28T13:03:03;18.77;;;7.93;;
73515;SDS011;61763;51.416;5.442;2024-02-28T13:05:29;14.07;;;5.35;;
73515;SDS011;61763;51.416;5.442;2024-02-28T13:07:55;16.45;;;7.45;;
73515;SDS011;61763;51.416;5.442;2024-02-28T13:10:20;16.23;;;7.10;;
73515;SDS011;61763;51.416;5.442;2024-02-28T13:12:46;16.30;;;7.07;;
73515;SDS011;61763;51.416;5.442;2024-02-28T13:15:12;15.32;;;6.40;;
73515;SDS011;61763;51.416;5.442;2024-02-28T13:17:38;14.30;;;6.22;;
73515;SDS011;61763;51.416;5.442;2024-02-28T13:20:03;14.23;;;6.65;;
73515;SDS011;61763;51.416;5.442;2024-02-28T13:22:29;12.30;;;6.40;;
73515;SDS011;61763;51.416;5.442;2024-02-28T13:24:54;14.50;;;5.75;;
73515;SDS011;61763;51.416;5.442;2024-02-28T13:27:20;16.25;;;6.47;;
73515;SDS011;61763;51.416;5.442;2024-02-28T13:29:46;12.75;;;4.57;;
73515;SDS011;61763;51.416;5.442;2024-02-28T13:32:12;13.50;;;6.45;;
73515;SDS011;61763;51.416;5.442;2024-02-28T13:34:37;10.38;;;4.72;;
73515;SDS011;61763;51.416;5.442;2024-02-28T13:37:04;16.00;;;4.80;;
73515;SDS011;61763;51.416;5.442;2024-02-28T13:39:29;10.85;;;6.25;;
73515;SDS011;61763;51.416;5.442;2024-02-28T13:41:54;11.90;;;5.78;;
73515;SDS011;61763;51.416;5.442;2024-02-28T13:44:20;12.70;;;5.88;;
73515;SDS011;61763;51.416;5.442;2024-02-28T13:46:45;9.48;;;4.28;;
73515;SDS011;61763;51.416;5.442;2024-02-28T13:49:12;10.45;;;4.00;;
73515;SDS011;61763;51.416;5.442;2024-02-28T13:51:38;14.98;;;6.38;;
73515;SDS011;61763;51.416;5.442;2024-02-28T13:54:04;11.30;;;6.13;;
73515;SDS011;61763;51.416;5.442;2024-02-28T13:56:30;11.13;;;5.85;;
73515;SDS011;61763;51.416;5.442;2024-02-28T13:58:56;14.43;;;4.68;;
73515;SDS011;61763;51.416;5.442;2024-02-28T14:01:22;11.75;;;5.70;;
73515;SDS011;61763;51.416;5.442;2024-02-28T14:03:47;15.30;;;6.22;;
73515;SDS011;61763;51.416;5.442;2024-02-28T14:06:12;12.88;;;6.72;;
73515;SDS011;61763;51.416;5.442;2024-02-28T14:08:39;11.77;;;5.85;;
73515;SDS011;61763;51.416;5.442;2024-02-28T14:11:04;11.65;;;6.68;;
73515;SDS011;61763;51.416;5.442;2024-02-28T14:13:30;10.75;;;6.07;;
73515;SDS011;61763;51.416;5.442;2024-02-28T14:15:56;15.65;;;6.05;;
73515;SDS011;61763;51.416;5.442;2024-02-28T14:18:22;12.23;;;5.35;;